sensor_id;sensor_type;location;lat;lon;timestamp;temperature;humidity
21502;DHT22;27639;48.674;9.242;2022-09-09T00:06:45;18.80;56.20
21502;DHT22;27639;48.674;9.242;2022-09-09T00:09:17;18.80;56.30
21502;DHT22;27639;48.674;9.242;2022-09-09T00:11:48;18.90;56.40
21502;DHT22;27639;48.674;9.242;2022-09-09T00:17:14;18.90;56.20
21502;DHT22;27639;48.674;9.242;2022-09-09T00:19:58;18.80;56.20
21502;DHT22;27639;48.674;9.242;2022-09-09T00:22:28;18.80;56.30
21502;DHT22;27639;48.674;9.242;2022-09-09T00:25:41;18.70;56.40
21502;DHT22;27639;48.674;9.242;2022-09-09T00:27:48;18.80;56.60
21502;DHT22;27639;48.674;9.242;2022-09-09T00:30:26;18.80;56.70
21502;DHT22;27639;48.674;9.242;2022-09-09T00:32:59;18.70;56.50
21502;DHT22;27639;48.674;9.242;2022-09-09T00:35:34;18.70;56.60
21502;DHT22;27639;48.674;9.242;2022-09-09T00:38:05;18.70;56.60
21502;DHT22;27639;48.674;9.242;2022-09-09T00:40:38;18.70;56.70
21502;DHT22;27639;48.674;9.242;2022-09-09T00:43:26;18.70;57.40
21502;DHT22;27639;48.674;9.242;2022-09-09T00:48:54;18.70;56.80
21502;DHT22;27639;48.674;9.242;2022-09-09T01:06:11;18.60;57.20
21502;DHT22;27639;48.674;9.242;2022-09-09T01:11:16;18.70;57.20
21502;DHT22;27639;48.674;9.242;2022-09-09T01:13:45;18.80;57.20
21502;DHT22;27639;48.674;9.242;2022-09-09T01:16:14;18.80;56.90
21502;DHT22;27639;48.674;9.242;2022-09-09T01:18:45;18.90;57.10
21502;DHT22;27639;48.674;9.242;2022-09-09T01:28:54;18.80;57.30
21502;DHT22;27639;48.674;9.242;2022-09-09T01:31:32;18.70;57.30
21502;DHT22;27639;48.674;9.242;2022-09-09T01:34:01;18.70;57.30
21502;DHT22;27639;48.674;9.242;2022-09-09T01:36:32;18.60;57.30
21502;DHT22;27639;48.674;9.242;2022-09-09T01:39:00;18.60;57.30
21502;DHT22;27639;48.674;9.242;2022-09-09T01:41:26;18.50;57.20
21502;DHT22;27639;48.674;9.242;2022-09-09T01:43:54;18.50;57.60
21502;DHT22;27639;48.674;9.242;2022-09-09T01:46:22;18.60;57.50
21502;DHT22;27639;48.674;9.242;2022-09-09T01:48:50;18.60;57.50
21502;DHT22;27639;48.674;9.242;2022-09-09T01:51:16;18.60;57.70
21502;DHT22;27639;48.674;9.242;2022-09-09T01:53:42;18.60;57.30
21502;DHT22;27639;48.674;9.242;2022-09-09T02:04:54;18.50;57.20
21502;DHT22;27639;48.674;9.242;2022-09-09T02:07:38;18.40;57.20
21502;DHT22;27639;48.674;9.242;2022-09-09T02:10:28;18.40;57.70
21502;DHT22;27639;48.674;9.242;2022-09-09T02:13:13;18.40;57.70
21502;DHT22;27639;48.674;9.242;2022-09-09T02:18:12;18.30;57.90
21502;DHT22;27639;48.674;9.242;2022-09-09T02:20:39;18.30;58.00
21502;DHT22;27639;48.674;9.242;2022-09-09T02:23:09;18.30;58.10
21502;DHT22;27639;48.674;9.242;2022-09-09T02:25:36;18.20;58.20
21502;DHT22;27639;48.674;9.242;2022-09-09T02:28:06;18.10;58.30
21502;DHT22;27639;48.674;9.242;2022-09-09T02:30:34;18.10;58.40
21502;DHT22;27639;48.674;9.242;2022-09-09T02:33:03;18.10;58.50
21502;DHT22;27639;48.674;9.242;2022-09-09T02:35:32;18.10;58.60
21502;DHT22;27639;48.674;9.242;2022-09-09T02:38:04;18.10;58.60
21502;DHT22;27639;48.674;9.242;2022-09-09T02:40:31;18.20;58.60
21502;DHT22;27639;48.674;9.242;2022-09-09T02:42:57;18.20;58.50
21502;DHT22;27639;48.674;9.242;2022-09-09T02:45:29;18.20;58.40
21502;DHT22;27639;48.674;9.242;2022-09-09T02:50:33;18.00;58.40
21502;DHT22;27639;48.674;9.242;2022-09-09T02:53:20;18.00;58.50
21502;DHT22;27639;48.674;9.242;2022-09-09T02:56:01;18.00;58.50
21502;DHT22;27639;48.674;9.242;2022-09-09T02:58:29;18.00;58.60
21502;DHT22;27639;48.674;9.242;2022-09-09T03:00:56;18.00;58.60
21502;DHT22;27639;48.674;9.242;2022-09-09T03:03:23;18.00;58.70
21502;DHT22;27639;48.674;9.242;2022-09-09T03:05:49;18.00;58.60
21502;DHT22;27639;48.674;9.242;2022-09-09T03:08:14;18.00;58.60
21502;DHT22;27639;48.674;9.242;2022-09-09T03:10:40;18.00;58.60
21502;DHT22;27639;48.674;9.242;2022-09-09T03:13:06;18.00;58.40
21502;DHT22;27639;48.674;9.242;2022-09-09T03:15:33;18.10;58.40
21502;DHT22;27639;48.674;9.242;2022-09-09T03:17:59;18.00;58.30
21502;DHT22;27639;48.674;9.242;2022-09-09T03:20:26;18.00;59.00
21502;DHT22;27639;48.674;9.242;2022-09-09T03:22:56;18.00;58.50
21502;DHT22;27639;48.674;9.242;2022-09-09T03:25:22;18.00;58.50
21502;DHT22;27639;48.674;9.242;2022-09-09T03:27:52;18.00;58.50
21502;DHT22;27639;48.674;9.242;2022-09-09T03:30:24;18.00;58.40
21502;DHT22;27639;48.674;9.242;2022-09-09T03:32:50;18.00;58.20
21502;DHT22;27639;48.674;9.242;2022-09-09T03:35:16;18.00;58.10
21502;DHT22;27639;48.674;9.242;2022-09-09T03:37:42;18.00;57.90
21502;DHT22;27639;48.674;9.242;2022-09-09T03:40:08;18.10;57.80
21502;DHT22;27639;48.674;9.242;2022-09-09T03:42:35;18.10;57.80
21502;DHT22;27639;48.674;9.242;2022-09-09T03:45:03;18.10;57.70
21502;DHT22;27639;48.674;9.242;2022-09-09T03:47:29;18.10;57.50
21502;DHT22;27639;48.674;9.242;2022-09-09T03:49:55;18.10;57.40
21502;DHT22;27639;48.674;9.242;2022-09-09T03:52:20;18.10;57.40
21502;DHT22;27639;48.674;9.242;2022-09-09T03:54:50;18.10;57.20
21502;DHT22;27639;48.674;9.242;2022-09-09T03:57:16;18.10;57.10
21502;DHT22;27639;48.674;9.242;2022-09-09T03:59:43;18.10;57.10
21502;DHT22;27639;48.674;9.242;2022-09-09T04:02:08;18.00;57.20
21502;DHT22;27639;48.674;9.242;2022-09-09T04:04:34;18.00;57.30
21502;DHT22;27639;48.674;9.242;2022-09-09T04:07:00;17.90;57.30
21502;DHT22;27639;48.674;9.242;2022-09-09T04:09:26;17.70;57.50
21502;DHT22;27639;48.674;9.242;2022-09-09T04:11:52;17.70;57.70
21502;DHT22;27639;48.674;9.242;2022-09-09T04:14:18;17.70;57.70
21502;DHT22;27639;48.674;9.242;2022-09-09T04:16:44;17.80;57.70
21502;DHT22;27639;48.674;9.242;2022-09-09T04:19:11;17.90;57.60
21502;DHT22;27639;48.674;9.242;2022-09-09T04:21:39;17.90;57.50
21502;DHT22;27639;48.674;9.242;2022-09-09T04:24:06;18.00;57.40
21502;DHT22;27639;48.674;9.242;2022-09-09T04:26:32;18.00;57.30
21502;DHT22;27639;48.674;9.242;2022-09-09T04:28:58;18.10;57.20
21502;DHT22;27639;48.674;9.242;2022-09-09T04:31:24;18.20;57.10
21502;DHT22;27639;48.674;9.242;2022-09-09T04:33:53;18.20;56.90
21502;DHT22;27639;48.674;9.242;2022-09-09T04:36:19;18.20;56.90
21502;DHT22;27639;48.674;9.242;2022-09-09T04:38:45;18.20;56.90
21502;DHT22;27639;48.674;9.242;2022-09-09T04:41:12;18.20;56.90
21502;DHT22;27639;48.674;9.242;2022-09-09T04:43:39;18.30;57.00
21502;DHT22;27639;48.674;9.242;2022-09-09T04:46:05;18.30;57.00
21502;DHT22;27639;48.674;9.242;2022-09-09T04:48:31;18.40;57.10
21502;DHT22;27639;48.674;9.242;2022-09-09T04:50:57;18.40;57.10
21502;DHT22;27639;48.674;9.242;2022-09-09T04:53:23;18.40;57.10
21502;DHT22;27639;48.674;9.242;2022-09-09T04:55:49;18.40;57.10
21502;DHT22;27639;48.674;9.242;2022-09-09T04:58:15;18.40;57.10
21502;DHT22;27639;48.674;9.242;2022-09-09T05:00:40;18.50;57.10
21502;DHT22;27639;48.674;9.242;2022-09-09T05:03:06;18.40;57.10
21502;DHT22;27639;48.674;9.242;2022-09-09T05:05:34;18.50;57.10
21502;DHT22;27639;48.674;9.242;2022-09-09T05:08:04;18.50;57.10
21502;DHT22;27639;48.674;9.242;2022-09-09T05:10:31;18.60;57.20
21502;DHT22;27639;48.674;9.242;2022-09-09T05:12:56;18.60;57.10
21502;DHT22;27639;48.674;9.242;2022-09-09T05:15:22;18.70;57.10
21502;DHT22;27639;48.674;9.242;2022-09-09T05:17:48;18.70;57.10
21502;DHT22;27639;48.674;9.242;2022-09-09T05:20:13;18.80;57.20
21502;DHT22;27639;48.674;9.242;2022-09-09T05:22:39;18.80;57.10
21502;DHT22;27639;48.674;9.242;2022-09-09T05:25:06;18.80;57.10
21502;DHT22;27639;48.674;9.242;2022-09-09T05:27:33;18.80;57.10
21502;DHT22;27639;48.674;9.242;2022-09-09T05:29:59;18.70;57.10
21502;DHT22;27639;48.674;9.242;2022-09-09T05:32:25;18.70;57.80
21502;DHT22;27639;48.674;9.242;2022-09-09T05:34:51;18.70;57.20
21502;DHT22;27639;48.674;9.242;2022-09-09T05:37:17;18.70;57.40
21502;DHT22;27639;48.674;9.242;2022-09-09T05:39:43;18.70;57.30
21502;DHT22;27639;48.674;9.242;2022-09-09T05:42:09;18.80;57.40
21502;DHT22;27639;48.674;9.242;2022-09-09T05:44:35;18.80;57.40
21502;DHT22;27639;48.674;9.242;2022-09-09T05:47:00;18.90;57.50
21502;DHT22;27639;48.674;9.242;2022-09-09T05:49:26;18.90;57.50
21502;DHT22;27639;48.674;9.242;2022-09-09T05:51:52;19.00;57.60
21502;DHT22;27639;48.674;9.242;2022-09-09T05:54:18;19.10;57.70
21502;DHT22;27639;48.674;9.242;2022-09-09T05:56:44;19.20;57.70
21502;DHT22;27639;48.674;9.242;2022-09-09T05:59:10;19.20;57.40
21502;DHT22;27639;48.674;9.242;2022-09-09T06:01:37;19.30;57.40
21502;DHT22;27639;48.674;9.242;2022-09-09T06:04:06;19.40;57.30
21502;DHT22;27639;48.674;9.242;2022-09-09T06:06:37;19.40;57.20
21502;DHT22;27639;48.674;9.242;2022-09-09T06:09:06;19.50;57.10
21502;DHT22;27639;48.674;9.242;2022-09-09T06:11:35;19.50;57.00
21502;DHT22;27639;48.674;9.242;2022-09-09T06:14:01;19.60;56.80
21502;DHT22;27639;48.674;9.242;2022-09-09T06:16:28;19.70;56.90
21502;DHT22;27639;48.674;9.242;2022-09-09T06:18:55;19.80;56.90
21502;DHT22;27639;48.674;9.242;2022-09-09T06:23:51;19.80;56.80
21502;DHT22;27639;48.674;9.242;2022-09-09T06:26:23;19.90;56.90
21502;DHT22;27639;48.674;9.242;2022-09-09T06:28:52;19.90;56.80
21502;DHT22;27639;48.674;9.242;2022-09-09T06:31:19;20.00;56.80
21502;DHT22;27639;48.674;9.242;2022-09-09T06:33:52;20.00;56.70
21502;DHT22;27639;48.674;9.242;2022-09-09T06:36:21;20.00;56.60
21502;DHT22;27639;48.674;9.242;2022-09-09T06:38:47;20.10;56.60
21502;DHT22;27639;48.674;9.242;2022-09-09T06:41:14;20.20;56.70
21502;DHT22;27639;48.674;9.242;2022-09-09T06:43:40;20.20;56.70
21502;DHT22;27639;48.674;9.242;2022-09-09T06:48:33;20.30;56.80
21502;DHT22;27639;48.674;9.242;2022-09-09T06:51:10;20.30;56.70
21502;DHT22;27639;48.674;9.242;2022-09-09T06:53:37;20.40;56.60
21502;DHT22;27639;48.674;9.242;2022-09-09T06:56:24;20.50;56.50
21502;DHT22;27639;48.674;9.242;2022-09-09T06:58:52;20.50;56.40
21502;DHT22;27639;48.674;9.242;2022-09-09T07:01:19;20.60;56.50
21502;DHT22;27639;48.674;9.242;2022-09-09T07:03:47;20.60;56.50
21502;DHT22;27639;48.674;9.242;2022-09-09T07:06:15;20.70;56.40
21502;DHT22;27639;48.674;9.242;2022-09-09T07:08:49;20.70;56.50
21502;DHT22;27639;48.674;9.242;2022-09-09T07:11:15;20.80;57.10
21502;DHT22;27639;48.674;9.242;2022-09-09T07:13:41;20.80;56.40
21502;DHT22;27639;48.674;9.242;2022-09-09T07:16:12;20.80;56.20
21502;DHT22;27639;48.674;9.242;2022-09-09T07:18:39;20.80;56.20
21502;DHT22;27639;48.674;9.242;2022-09-09T07:21:05;20.90;56.20
21502;DHT22;27639;48.674;9.242;2022-09-09T07:23:32;20.90;56.00
21502;DHT22;27639;48.674;9.242;2022-09-09T07:25:58;20.90;55.90
21502;DHT22;27639;48.674;9.242;2022-09-09T07:28:25;20.90;55.80
21502;DHT22;27639;48.674;9.242;2022-09-09T07:30:59;21.00;55.90
21502;DHT22;27639;48.674;9.242;2022-09-09T07:33:29;21.10;55.60
21502;DHT22;27639;48.674;9.242;2022-09-09T07:36:05;21.10;55.60
21502;DHT22;27639;48.674;9.242;2022-09-09T07:38:37;21.10;55.60
21502;DHT22;27639;48.674;9.242;2022-09-09T07:41:07;21.20;55.70
21502;DHT22;27639;48.674;9.242;2022-09-09T07:43:40;21.20;55.70
21502;DHT22;27639;48.674;9.242;2022-09-09T07:46:08;21.20;55.70
21502;DHT22;27639;48.674;9.242;2022-09-09T07:48:34;21.30;55.60
21502;DHT22;27639;48.674;9.242;2022-09-09T07:51:09;21.30;55.70
21502;DHT22;27639;48.674;9.242;2022-09-09T07:53:40;21.40;55.60
21502;DHT22;27639;48.674;9.242;2022-09-09T07:56:08;21.50;55.60
21502;DHT22;27639;48.674;9.242;2022-09-09T07:58:38;21.60;55.30
21502;DHT22;27639;48.674;9.242;2022-09-09T08:01:13;21.70;55.20
21502;DHT22;27639;48.674;9.242;2022-09-09T08:03:39;21.70;54.80
21502;DHT22;27639;48.674;9.242;2022-09-09T08:06:08;21.70;54.90
21502;DHT22;27639;48.674;9.242;2022-09-09T08:08:34;21.70;54.80
21502;DHT22;27639;48.674;9.242;2022-09-09T08:11:06;21.60;54.60
21502;DHT22;27639;48.674;9.242;2022-09-09T08:13:36;21.50;54.70
21502;DHT22;27639;48.674;9.242;2022-09-09T08:16:11;21.60;54.80
21502;DHT22;27639;48.674;9.242;2022-09-09T08:18:37;21.60;55.00
21502;DHT22;27639;48.674;9.242;2022-09-09T08:21:18;21.70;54.80
21502;DHT22;27639;48.674;9.242;2022-09-09T08:23:46;21.80;54.90
21502;DHT22;27639;48.674;9.242;2022-09-09T08:26:13;21.90;55.00
21502;DHT22;27639;48.674;9.242;2022-09-09T08:28:40;22.00;54.50
21502;DHT22;27639;48.674;9.242;2022-09-09T08:31:15;22.00;54.50
21502;DHT22;27639;48.674;9.242;2022-09-09T08:33:42;22.10;54.70
21502;DHT22;27639;48.674;9.242;2022-09-09T08:36:16;22.20;54.90
21502;DHT22;27639;48.674;9.242;2022-09-09T08:38:42;22.30;54.60
21502;DHT22;27639;48.674;9.242;2022-09-09T08:41:34;22.40;54.60
21502;DHT22;27639;48.674;9.242;2022-09-09T08:46:58;22.70;54.10
21502;DHT22;27639;48.674;9.242;2022-09-09T08:53:01;22.90;53.70
21502;DHT22;27639;48.674;9.242;2022-09-09T08:57:52;23.10;52.90
21502;DHT22;27639;48.674;9.242;2022-09-09T09:00:19;23.10;52.60
21502;DHT22;27639;48.674;9.242;2022-09-09T09:05:46;23.10;52.20
21502;DHT22;27639;48.674;9.242;2022-09-09T09:08:44;23.10;52.40
21502;DHT22;27639;48.674;9.242;2022-09-09T09:11:13;23.10;52.40
21502;DHT22;27639;48.674;9.242;2022-09-09T09:13:58;23.00;52.40
21502;DHT22;27639;48.674;9.242;2022-09-09T09:16:38;23.10;52.50
21502;DHT22;27639;48.674;9.242;2022-09-09T09:19:13;23.30;52.80
21502;DHT22;27639;48.674;9.242;2022-09-09T09:21:45;23.50;52.60
21502;DHT22;27639;48.674;9.242;2022-09-09T09:24:42;23.70;52.50
21502;DHT22;27639;48.674;9.242;2022-09-09T09:27:18;23.90;52.20
21502;DHT22;27639;48.674;9.242;2022-09-09T09:29:48;24.00;51.80
21502;DHT22;27639;48.674;9.242;2022-09-09T09:32:17;24.20;51.90
21502;DHT22;27639;48.674;9.242;2022-09-09T09:34:49;24.20;51.40
21502;DHT22;27639;48.674;9.242;2022-09-09T09:37:20;24.50;50.90
21502;DHT22;27639;48.674;9.242;2022-09-09T09:39:49;24.50;48.30
21502;DHT22;27639;48.674;9.242;2022-09-09T09:42:17;24.50;47.00
21502;DHT22;27639;48.674;9.242;2022-09-09T09:44:43;24.40;46.00
21502;DHT22;27639;48.674;9.242;2022-09-09T09:49:55;24.30;45.30
21502;DHT22;27639;48.674;9.242;2022-09-09T09:52:26;24.10;44.70
21502;DHT22;27639;48.674;9.242;2022-09-09T09:54:53;24.00;44.80
21502;DHT22;27639;48.674;9.242;2022-09-09T09:57:24;24.00;45.30
21502;DHT22;27639;48.674;9.242;2022-09-09T10:00:04;24.00;45.10
21502;DHT22;27639;48.674;9.242;2022-09-09T10:02:40;23.80;44.50
21502;DHT22;27639;48.674;9.242;2022-09-09T10:05:16;23.70;44.90
21502;DHT22;27639;48.674;9.242;2022-09-09T10:07:43;23.60;45.40
21502;DHT22;27639;48.674;9.242;2022-09-09T10:10:21;23.50;45.70
21502;DHT22;27639;48.674;9.242;2022-09-09T10:12:58;23.50;45.20
21502;DHT22;27639;48.674;9.242;2022-09-09T10:16:22;23.50;45.70
21502;DHT22;27639;48.674;9.242;2022-09-09T10:18:57;23.60;45.70
21502;DHT22;27639;48.674;9.242;2022-09-09T10:24:15;23.80;46.20
21502;DHT22;27639;48.674;9.242;2022-09-09T10:26:58;24.00;46.60
21502;DHT22;27639;48.674;9.242;2022-09-09T10:35:16;24.40;47.80
21502;DHT22;27639;48.674;9.242;2022-09-09T10:40:32;24.70;47.70
21502;DHT22;27639;48.674;9.242;2022-09-09T10:43:14;24.80;47.20
21502;DHT22;27639;48.674;9.242;2022-09-09T10:56:39;25.00;44.80
21502;DHT22;27639;48.674;9.242;2022-09-09T10:59:12;25.00;44.20
21502;DHT22;27639;48.674;9.242;2022-09-09T11:01:43;25.10;43.60
21502;DHT22;27639;48.674;9.242;2022-09-09T11:04:28;25.20;43.10
21502;DHT22;27639;48.674;9.242;2022-09-09T11:07:00;25.20;42.40
21502;DHT22;27639;48.674;9.242;2022-09-09T11:09:33;25.20;43.20
21502;DHT22;27639;48.674;9.242;2022-09-09T11:12:03;25.20;42.50
21502;DHT22;27639;48.674;9.242;2022-09-09T11:14:51;25.10;43.00
21502;DHT22;27639;48.674;9.242;2022-09-09T11:17:30;25.00;43.30
21502;DHT22;27639;48.674;9.242;2022-09-09T11:19:59;25.10;43.40
21502;DHT22;27639;48.674;9.242;2022-09-09T11:22:33;24.80;43.30
21502;DHT22;27639;48.674;9.242;2022-09-09T11:25:14;24.60;45.00
21502;DHT22;27639;48.674;9.242;2022-09-09T11:42:25;22.90;49.50
21502;DHT22;27639;48.674;9.242;2022-09-09T11:44:51;22.80;49.70
21502;DHT22;27639;48.674;9.242;2022-09-09T11:49:49;22.80;50.60
21502;DHT22;27639;48.674;9.242;2022-09-09T11:52:38;22.90;50.90
21502;DHT22;27639;48.674;9.242;2022-09-09T11:55:24;22.90;50.90
21502;DHT22;27639;48.674;9.242;2022-09-09T11:58:19;22.80;50.60
21502;DHT22;27639;48.674;9.242;2022-09-09T12:00:49;22.80;50.30
21502;DHT22;27639;48.674;9.242;2022-09-09T12:06:08;22.80;49.00
21502;DHT22;27639;48.674;9.242;2022-09-09T12:08:35;22.80;49.20
21502;DHT22;27639;48.674;9.242;2022-09-09T12:11:02;22.80;48.90
21502;DHT22;27639;48.674;9.242;2022-09-09T12:13:30;22.80;48.70
21502;DHT22;27639;48.674;9.242;2022-09-09T12:15:58;22.80;48.60
21502;DHT22;27639;48.674;9.242;2022-09-09T12:18:35;22.80;48.50
21502;DHT22;27639;48.674;9.242;2022-09-09T12:24:02;22.90;48.30
21502;DHT22;27639;48.674;9.242;2022-09-09T12:26:44;23.00;47.80
21502;DHT22;27639;48.674;9.242;2022-09-09T12:29:25;23.10;47.40
21502;DHT22;27639;48.674;9.242;2022-09-09T12:32:15;23.20;47.30
21502;DHT22;27639;48.674;9.242;2022-09-09T12:37:34;23.40;47.70
21502;DHT22;27639;48.674;9.242;2022-09-09T12:40:21;23.50;47.70
21502;DHT22;27639;48.674;9.242;2022-09-09T12:42:47;23.70;47.00
21502;DHT22;27639;48.674;9.242;2022-09-09T12:45:39;23.80;46.60
21502;DHT22;27639;48.674;9.242;2022-09-09T12:48:07;23.90;46.20
21502;DHT22;27639;48.674;9.242;2022-09-09T12:50:36;24.00;45.90
21502;DHT22;27639;48.674;9.242;2022-09-09T12:53:29;23.90;45.40
21502;DHT22;27639;48.674;9.242;2022-09-09T12:56:01;23.90;46.20
21502;DHT22;27639;48.674;9.242;2022-09-09T12:58:29;24.00;45.70
21502;DHT22;27639;48.674;9.242;2022-09-09T13:00:59;23.90;45.20
21502;DHT22;27639;48.674;9.242;2022-09-09T13:03:32;23.90;45.40
21502;DHT22;27639;48.674;9.242;2022-09-09T13:06:13;24.00;45.30
21502;DHT22;27639;48.674;9.242;2022-09-09T13:08:39;23.90;45.10
21502;DHT22;27639;48.674;9.242;2022-09-09T13:11:13;23.80;44.90
21502;DHT22;27639;48.674;9.242;2022-09-09T13:13:42;23.80;44.60
21502;DHT22;27639;48.674;9.242;2022-09-09T13:16:24;23.80;44.70
21502;DHT22;27639;48.674;9.242;2022-09-09T13:18:51;23.80;44.20
21502;DHT22;27639;48.674;9.242;2022-09-09T13:21:17;23.80;44.20
21502;DHT22;27639;48.674;9.242;2022-09-09T13:23:49;23.80;44.40
21502;DHT22;27639;48.674;9.242;2022-09-09T13:28:43;23.80;43.50
21502;DHT22;27639;48.674;9.242;2022-09-09T13:33:46;23.80;44.50
21502;DHT22;27639;48.674;9.242;2022-09-09T13:36:12;23.90;44.60
21502;DHT22;27639;48.674;9.242;2022-09-09T13:41:29;24.00;44.00
21502;DHT22;27639;48.674;9.242;2022-09-09T13:43:56;24.20;44.80
21502;DHT22;27639;48.674;9.242;2022-09-09T13:46:38;24.30;44.70
21502;DHT22;27639;48.674;9.242;2022-09-09T13:51:41;24.50;44.80
21502;DHT22;27639;48.674;9.242;2022-09-09T13:54:11;24.60;44.80
21502;DHT22;27639;48.674;9.242;2022-09-09T13:56:39;24.70;44.80
21502;DHT22;27639;48.674;9.242;2022-09-09T13:59:09;24.80;44.30
21502;DHT22;27639;48.674;9.242;2022-09-09T14:01:36;24.70;43.10
21502;DHT22;27639;48.674;9.242;2022-09-09T14:04:03;24.70;42.80
21502;DHT22;27639;48.674;9.242;2022-09-09T14:06:29;24.70;42.90
21502;DHT22;27639;48.674;9.242;2022-09-09T14:08:55;24.80;42.50
21502;DHT22;27639;48.674;9.242;2022-09-09T14:11:21;24.80;42.40
21502;DHT22;27639;48.674;9.242;2022-09-09T14:13:48;24.90;42.40
21502;DHT22;27639;48.674;9.242;2022-09-09T14:16:16;24.90;42.20
21502;DHT22;27639;48.674;9.242;2022-09-09T14:18:43;25.00;42.50
21502;DHT22;27639;48.674;9.242;2022-09-09T14:21:09;25.10;42.50
21502;DHT22;27639;48.674;9.242;2022-09-09T14:23:35;25.20;42.20
21502;DHT22;27639;48.674;9.242;2022-09-09T14:26:01;25.20;42.20
21502;DHT22;27639;48.674;9.242;2022-09-09T14:28:26;25.40;42.30
21502;DHT22;27639;48.674;9.242;2022-09-09T14:30:53;25.40;42.10
21502;DHT22;27639;48.674;9.242;2022-09-09T14:33:19;25.50;42.00
21502;DHT22;27639;48.674;9.242;2022-09-09T14:35:45;25.50;41.30
21502;DHT22;27639;48.674;9.242;2022-09-09T14:38:10;25.50;41.40
21502;DHT22;27639;48.674;9.242;2022-09-09T14:40:37;25.50;41.20
21502;DHT22;27639;48.674;9.242;2022-09-09T14:43:03;25.50;40.90
21502;DHT22;27639;48.674;9.242;2022-09-09T14:45:29;25.50;40.90
21502;DHT22;27639;48.674;9.242;2022-09-09T14:47:55;25.50;40.70
21502;DHT22;27639;48.674;9.242;2022-09-09T14:50:21;25.50;40.50
21502;DHT22;27639;48.674;9.242;2022-09-09T14:52:47;25.50;40.20
21502;DHT22;27639;48.674;9.242;2022-09-09T14:55:13;25.40;39.80
21502;DHT22;27639;48.674;9.242;2022-09-09T14:57:39;25.30;39.70
21502;DHT22;27639;48.674;9.242;2022-09-09T15:00:07;25.20;39.80
21502;DHT22;27639;48.674;9.242;2022-09-09T15:02:33;25.20;39.70
21502;DHT22;27639;48.674;9.242;2022-09-09T15:04:58;25.20;39.70
21502;DHT22;27639;48.674;9.242;2022-09-09T15:07:25;25.20;39.20
21502;DHT22;27639;48.674;9.242;2022-09-09T15:09:51;25.20;39.70
21502;DHT22;27639;48.674;9.242;2022-09-09T15:12:18;25.20;39.70
21502;DHT22;27639;48.674;9.242;2022-09-09T15:14:45;25.30;39.70
21502;DHT22;27639;48.674;9.242;2022-09-09T15:17:10;25.30;39.20
21502;DHT22;27639;48.674;9.242;2022-09-09T15:19:37;25.30;39.30
21502;DHT22;27639;48.674;9.242;2022-09-09T15:22:03;25.30;39.30
21502;DHT22;27639;48.674;9.242;2022-09-09T15:24:31;25.20;38.70
21502;DHT22;27639;48.674;9.242;2022-09-09T15:26:57;25.10;38.90
21502;DHT22;27639;48.674;9.242;2022-09-09T15:29:23;25.10;39.10
21502;DHT22;27639;48.674;9.242;2022-09-09T15:31:48;25.10;39.60
21502;DHT22;27639;48.674;9.242;2022-09-09T15:34:14;25.10;39.60
21502;DHT22;27639;48.674;9.242;2022-09-09T15:36:44;25.00;39.60
21502;DHT22;27639;48.674;9.242;2022-09-09T15:39:16;25.00;39.60
21502;DHT22;27639;48.674;9.242;2022-09-09T15:41:43;25.00;39.60
21502;DHT22;27639;48.674;9.242;2022-09-09T15:44:10;25.00;39.60
21502;DHT22;27639;48.674;9.242;2022-09-09T15:46:42;24.90;39.50
21502;DHT22;27639;48.674;9.242;2022-09-09T15:51:40;24.90;39.60
21502;DHT22;27639;48.674;9.242;2022-09-09T15:54:08;24.90;39.90
21502;DHT22;27639;48.674;9.242;2022-09-09T15:56:33;24.90;40.10
21502;DHT22;27639;48.674;9.242;2022-09-09T15:59:01;24.90;40.10
21502;DHT22;27639;48.674;9.242;2022-09-09T16:01:28;25.00;39.90
21502;DHT22;27639;48.674;9.242;2022-09-09T16:03:54;24.90;39.80
21502;DHT22;27639;48.674;9.242;2022-09-09T16:06:23;24.90;39.60
21502;DHT22;27639;48.674;9.242;2022-09-09T16:08:51;24.90;40.30
21502;DHT22;27639;48.674;9.242;2022-09-09T16:11:19;24.70;39.30
21502;DHT22;27639;48.674;9.242;2022-09-09T16:13:47;24.60;39.50
21502;DHT22;27639;48.674;9.242;2022-09-09T16:16:14;24.50;39.70
21502;DHT22;27639;48.674;9.242;2022-09-09T16:18:46;24.50;40.00
21502;DHT22;27639;48.674;9.242;2022-09-09T16:21:23;24.50;40.00
21502;DHT22;27639;48.674;9.242;2022-09-09T16:23:51;24.40;40.00
21502;DHT22;27639;48.674;9.242;2022-09-09T16:26:17;24.30;39.90
21502;DHT22;27639;48.674;9.242;2022-09-09T16:28:43;24.30;40.00
21502;DHT22;27639;48.674;9.242;2022-09-09T16:31:11;24.30;40.00
21502;DHT22;27639;48.674;9.242;2022-09-09T16:33:39;24.30;40.10
21502;DHT22;27639;48.674;9.242;2022-09-09T16:36:09;24.30;40.20
21502;DHT22;27639;48.674;9.242;2022-09-09T16:38:36;24.20;40.20
21502;DHT22;27639;48.674;9.242;2022-09-09T16:41:03;24.20;40.30
21502;DHT22;27639;48.674;9.242;2022-09-09T16:43:31;24.20;40.40
21502;DHT22;27639;48.674;9.242;2022-09-09T16:45:56;24.10;40.50
21502;DHT22;27639;48.674;9.242;2022-09-09T16:48:22;24.10;40.60
21502;DHT22;27639;48.674;9.242;2022-09-09T16:50:48;24.10;40.80
21502;DHT22;27639;48.674;9.242;2022-09-09T16:53:14;24.00;40.70
21502;DHT22;27639;48.674;9.242;2022-09-09T16:55:41;23.90;41.30
21502;DHT22;27639;48.674;9.242;2022-09-09T16:58:10;23.90;40.90
21502;DHT22;27639;48.674;9.242;2022-09-09T17:00:36;23.90;40.90
21502;DHT22;27639;48.674;9.242;2022-09-09T17:03:01;23.90;41.10
21502;DHT22;27639;48.674;9.242;2022-09-09T17:05:28;23.90;41.20
21502;DHT22;27639;48.674;9.242;2022-09-09T17:07:54;23.90;41.20
21502;DHT22;27639;48.674;9.242;2022-09-09T17:10:24;23.90;41.30
21502;DHT22;27639;48.674;9.242;2022-09-09T17:12:50;23.90;41.30
21502;DHT22;27639;48.674;9.242;2022-09-09T17:15:16;23.80;41.40
21502;DHT22;27639;48.674;9.242;2022-09-09T17:17:43;23.80;41.60
21502;DHT22;27639;48.674;9.242;2022-09-09T17:20:10;23.80;41.80
21502;DHT22;27639;48.674;9.242;2022-09-09T17:22:36;23.80;42.00
21502;DHT22;27639;48.674;9.242;2022-09-09T17:25:02;23.70;41.90
21502;DHT22;27639;48.674;9.242;2022-09-09T17:27:28;23.70;42.20
21502;DHT22;27639;48.674;9.242;2022-09-09T17:29:57;23.70;42.30
21502;DHT22;27639;48.674;9.242;2022-09-09T17:32:22;23.70;42.50
21502;DHT22;27639;48.674;9.242;2022-09-09T17:34:48;23.70;42.70
21502;DHT22;27639;48.674;9.242;2022-09-09T17:37:13;23.50;42.60
21502;DHT22;27639;48.674;9.242;2022-09-09T17:39:39;23.40;42.70
21502;DHT22;27639;48.674;9.242;2022-09-09T17:42:05;23.20;42.90
21502;DHT22;27639;48.674;9.242;2022-09-09T17:44:33;23.20;43.10
21502;DHT22;27639;48.674;9.242;2022-09-09T17:46:58;23.20;43.30
21502;DHT22;27639;48.674;9.242;2022-09-09T17:49:24;23.10;43.30
21502;DHT22;27639;48.674;9.242;2022-09-09T17:51:50;23.10;43.40
21502;DHT22;27639;48.674;9.242;2022-09-09T17:54:18;23.10;44.10
21502;DHT22;27639;48.674;9.242;2022-09-09T17:56:45;23.10;43.50